Terminal Aerodrome Forecast
Issued by NWS Dodge City, KS

Home | Current Version | Previous Version | Graphics & Text | Print | Product List | Glossary Off
Versions: 1 2 3 4 5 6 7 8 9 10 11 12 13 14 15 16 17 18 19 20

000
FTUS43 KDDC 020910 AAA
TAFDDC
TAF AMD
KDDC 020910Z 0209/0306 32006KT P6SM SCT070
     FM021500 34010G20KT P6SM SCT050 SCT200
     FM030000 VRB06KT P6SM SCT050 SCT200=

USA.gov is the U.S. government's official web portal to all federal, state and local government web resources and services.